JAL4KL VVDN-VHHH
Flight info
| Callsign | JAL4KL |
|---|---|
| Flight time | N/A |
| Altitude | 37100 |
| Route | BUNTA2G BUNTA A1 LENKO/K0839F371 A1 IKELA/N0452F371 P901 IDOSI V561 CANTO |
| Aircraft | A20N/M-SDE2E3FGHIRWXY/LB1 |
Departure
| Time | 2026-04-21 13:26 |
|---|---|
| Airport | Da Nang International Airport (VVDN) |
Arrival
| Time | N/A |
|---|---|
| Airport | Hong Kong International Airport (VHHH) |
| Time | Latitude | Longitude | Altitude | Speed | Heading |
|---|---|---|---|---|---|
| 2026-04-21 13:09 | 16.05459 | 108.20172 | 28 ft | 0 kts | 120° |
| 2026-04-21 13:17 | 16.05461 | 108.20168 | 28 ft | 1 kts | 120° |
| 2026-04-21 13:17 | 16.05464 | 108.20162 | 28 ft | 2 kts | 120° |
| 2026-04-21 13:18 | 16.05471 | 108.20151 | 28 ft | 2 kts | 120° |
| 2026-04-21 13:18 | 16.05477 | 108.20139 | 28 ft | 2 kts | 120° |
| 2026-04-21 13:18 | 16.05486 | 108.20123 | 28 ft | 3 kts | 122° |
| 2026-04-21 13:18 | 16.05501 | 108.20104 | 28 ft | 3 kts | 140° |
| 2026-04-21 13:19 | 16.05521 | 108.20090 | 28 ft | 3 kts | 156° |
| 2026-04-21 13:19 | 16.05544 | 108.20082 | 28 ft | 3 kts | 172° |
| 2026-04-21 13:19 | 16.05550 | 108.20081 | 28 ft | 0 kts | 173° |
| 2026-04-21 13:22 | 16.05547 | 108.20081 | 28 ft | 3 kts | 176° |
| 2026-04-21 13:22 | 16.05512 | 108.20054 | 28 ft | 10 kts | 233° |
| 2026-04-21 13:22 | 16.05437 | 108.20027 | 28 ft | 14 kts | 177° |
| 2026-04-21 13:22 | 16.05326 | 108.20043 | 29 ft | 19 kts | 172° |
| 2026-04-21 13:23 | 16.05184 | 108.20063 | 29 ft | 22 kts | 172° |
| 2026-04-21 13:23 | 16.05015 | 108.20087 | 29 ft | 26 kts | 172° |
| 2026-04-21 13:23 | 16.04822 | 108.20114 | 29 ft | 30 kts | 172° |
| 2026-04-21 13:23 | 16.04610 | 108.20146 | 29 ft | 32 kts | 172° |
| 2026-04-21 13:24 | 16.04381 | 108.20180 | 30 ft | 34 kts | 172° |
| 2026-04-21 13:24 | 16.04139 | 108.20214 | 31 ft | 36 kts | 172° |
| 2026-04-21 13:24 | 16.03886 | 108.20251 | 32 ft | 37 kts | 172° |
| 2026-04-21 13:24 | 16.03623 | 108.20288 | 32 ft | 39 kts | 173° |
| 2026-04-21 13:25 | 16.03348 | 108.20325 | 31 ft | 41 kts | 171° |
| 2026-04-21 13:25 | 16.03104 | 108.20364 | 31 ft | 28 kts | 171° |
| 2026-04-21 13:25 | 16.02933 | 108.20318 | 30 ft | 26 kts | 252° |
| 2026-04-21 13:25 | 16.02990 | 108.20237 | 30 ft | 15 kts | 355° |
| 2026-04-21 13:26 | 16.03089 | 108.20221 | 30 ft | 16 kts | 352° |
| 2026-04-21 13:26 | 16.03501 | 108.20160 | 32 ft | 113 kts | 352° |
| 2026-04-21 13:26 | 16.04578 | 108.20002 | 86 ft | 189 kts | 352° |
| 2026-04-21 13:26 | 16.05844 | 108.19855 | 1160 ft | 180 kts | 356° |
| 2026-04-21 13:27 | 16.07118 | 108.19829 | 2278 ft | 189 kts | 359° |
| 2026-04-21 13:27 | 16.08508 | 108.19836 | 3236 ft | 210 kts | 360° |
| 2026-04-21 13:27 | 16.10042 | 108.19834 | 4170 ft | 231 kts | 359° |
| 2026-04-21 13:27 | 16.11729 | 108.19811 | 5089 ft | 254 kts | 358° |
| 2026-04-21 13:28 | 16.13558 | 108.19771 | 6100 ft | 268 kts | 358° |
| 2026-04-21 13:28 | 16.15441 | 108.19723 | 7380 ft | 273 kts | 358° |
| 2026-04-21 13:28 | 16.17357 | 108.19673 | 8627 ft | 278 kts | 358° |
| 2026-04-21 13:28 | 16.19313 | 108.19621 | 9843 ft | 284 kts | 358° |
| 2026-04-21 13:29 | 16.21330 | 108.19567 | 10828 ft | 300 kts | 358° |
| 2026-04-21 13:29 | 16.23500 | 108.19510 | 11444 ft | 325 kts | 358° |
| 2026-04-21 13:29 | 16.25834 | 108.19449 | 12144 ft | 342 kts | 358° |
| 2026-04-21 13:29 | 16.28233 | 108.19389 | 13192 ft | 347 kts | 359° |
| 2026-04-21 13:30 | 16.30634 | 108.19750 | 14206 ft | 353 kts | 18° |
| 2026-04-21 13:30 | 16.32806 | 108.20976 | 15186 ft | 359 kts | 39° |
| 2026-04-21 13:30 | 16.34467 | 108.22931 | 16137 ft | 365 kts | 58° |
| 2026-04-21 13:30 | 16.35476 | 108.25371 | 17051 ft | 371 kts | 71° |
| 2026-04-21 13:31 | 16.36231 | 108.27954 | 17940 ft | 376 kts | 74° |
| 2026-04-21 13:31 | 16.36956 | 108.30588 | 18803 ft | 381 kts | 74° |
| 2026-04-21 13:31 | 16.37705 | 108.33250 | 19643 ft | 386 kts | 73° |
| 2026-04-21 13:31 | 16.38489 | 108.35942 | 20461 ft | 391 kts | 73° |
| 2026-04-21 13:32 | 16.39299 | 108.38659 | 21254 ft | 395 kts | 72° |
| 2026-04-21 13:32 | 16.40128 | 108.41408 | 22022 ft | 400 kts | 72° |
| 2026-04-21 13:32 | 16.40969 | 108.44185 | 22767 ft | 405 kts | 72° |
| 2026-04-21 13:32 | 16.41823 | 108.47002 | 23431 ft | 411 kts | 72° |
| 2026-04-21 13:33 | 16.42682 | 108.49840 | 23555 ft | 411 kts | 72° |
| 2026-04-21 13:33 | 16.43543 | 108.52685 | 23744 ft | 415 kts | 72° |
| 2026-04-21 13:33 | 16.44413 | 108.55562 | 24481 ft | 416 kts | 72° |
| 2026-04-21 13:33 | 16.45285 | 108.58451 | 25197 ft | 420 kts | 72° |
| 2026-04-21 13:34 | 16.46126 | 108.61384 | 25827 ft | 425 kts | 74° |
| 2026-04-21 13:34 | 16.46937 | 108.64355 | 26413 ft | 429 kts | 74° |
| 2026-04-21 13:34 | 16.47751 | 108.67357 | 27018 ft | 433 kts | 74° |
| 2026-04-21 13:34 | 16.48566 | 108.70352 | 27575 ft | 436 kts | 74° |
| 2026-04-21 13:35 | 16.49403 | 108.73407 | 28111 ft | 440 kts | 74° |
| 2026-04-21 13:35 | 16.50249 | 108.76484 | 28621 ft | 444 kts | 74° |
| 2026-04-21 13:35 | 16.51103 | 108.79586 | 29106 ft | 447 kts | 74° |
| 2026-04-21 13:35 | 16.51807 | 108.82145 | 29494 ft | 450 kts | 74° |
| 2026-04-21 13:36 | 16.52673 | 108.85292 | 29949 ft | 453 kts | 74° |
| 2026-04-21 13:36 | 16.53249 | 108.87386 | 30250 ft | 455 kts | 74° |
| 2026-04-21 13:36 | 16.54125 | 108.90572 | 30711 ft | 458 kts | 74° |
| 2026-04-21 13:36 | 16.55022 | 108.93768 | 31170 ft | 461 kts | 71° |
| 2026-04-21 13:37 | 16.56191 | 108.96887 | 31703 ft | 461 kts | 65° |
| 2026-04-21 13:37 | 16.57678 | 108.99844 | 32281 ft | 460 kts | 59° |
| 2026-04-21 13:37 | 16.59435 | 109.02627 | 32855 ft | 459 kts | 55° |
| 2026-04-21 13:37 | 16.61233 | 109.05377 | 33390 ft | 458 kts | 56° |
| 2026-04-21 13:38 | 16.63015 | 109.08120 | 33926 ft | 456 kts | 56° |
| 2026-04-21 13:38 | 16.64792 | 109.10860 | 34429 ft | 455 kts | 56° |
| 2026-04-21 13:38 | 16.66563 | 109.13594 | 34932 ft | 454 kts | 56° |
| 2026-04-21 13:38 | 16.68329 | 109.16317 | 35404 ft | 453 kts | 56° |
| 2026-04-21 13:39 | 16.70096 | 109.19043 | 35864 ft | 452 kts | 56° |